Time;durP1;ratioP1;P1;durP2;ratioP2;P2;SDS_P1;SDS_P2;PMS_P1;PMS_P2;Temp;Humidity;BMP_temperature;BMP_pressure;BME280_temperature;BME280_humidity;BME280_pressure;Samples;Min_cycle;Max_cycle;Signal;HPM_P1;HPM_P2
2022/03/14 00:00:37;;;;;;;0.65;0.30;;;8.00;99.90;;;;;;1879549;75;21148;-86
2022/03/14 00:03:40;;;;;;;1.10;0.30;;;8.00;99.90;;;;;;1917286;75;21117;-86
2022/03/14 00:06:23;;;;;;;0.28;0.28;;;8.00;99.90;;;;;;1899449;75;21099;-85
2022/03/14 00:09:14;;;;;;;0.80;0.30;;;8.00;99.90;;;;;;1895948;75;21098;-85
2022/03/14 00:12:08;;;;;;;0.57;0.20;;;8.00;99.90;;;;;;1894970;75;21147;-85
2022/03/14 00:15:03;;;;;;;0.70;0.30;;;8.00;99.90;;;;;;1893271;75;21158;-85
2022/03/14 00:17:53;;;;;;;0.30;0.30;;;8.00;99.90;;;;;;1898193;75;21169;-85
2022/03/14 00:20:45;;;;;;;0.72;0.40;;;8.10;99.90;;;;;;1891366;75;21138;-85
2022/03/14 00:26:22;;;;;;;0.30;0.30;;;8.00;99.90;;;;;;1924239;72;22223;-86
2022/03/14 00:29:32;;;;;;;0.40;0.30;;;8.10;99.90;;;;;;1886499;75;21153;-85
2022/03/14 00:32:24;;;;;;;0.42;0.30;;;8.10;99.90;;;;;;1894523;75;21172;-85
2022/03/14 00:37:56;;;;;;;0.82;0.40;;;8.10;99.90;;;;;;1946606;72;22115;-84
2022/03/14 00:43:47;;;;;;;0.50;0.20;;;8.10;99.90;;;;;;1944617;72;22222;-86
2022/03/14 00:46:57;;;;;;;0.23;0.20;;;8.20;99.90;;;;;;1908237;75;21146;-86
2022/03/14 00:49:48;;;;;;;0.53;0.30;;;8.10;99.90;;;;;;1912558;75;21151;-85
2022/03/14 00:52:40;;;;;;;0.62;0.30;;;8.00;99.90;;;;;;1904465;75;21076;-84
2022/03/14 00:58:11;;;;;;;0.53;0.30;;;8.10;99.90;;;;;;1934614;72;22205;-86
2022/03/14 01:01:21;;;;;;;1.37;0.30;;;8.10;99.90;;;;;;1900405;75;21087;-86
2022/03/14 01:06:53;;;;;;;0.57;0.30;;;8.00;99.90;;;;;;1932165;72;22178;-86
2022/03/14 01:10:04;;;;;;;0.50;0.33;;;8.00;99.90;;;;;;1879077;75;21093;-86
2022/03/14 01:12:57;;;;;;;0.30;0.30;;;8.10;99.90;;;;;;1899248;75;21157;-85
2022/03/14 01:15:49;;;;;;;0.47;0.40;;;8.00;99.90;;;;;;1881840;75;21059;-85
2022/03/14 01:18:40;;;;;;;0.50;0.30;;;8.10;99.90;;;;;;1876022;75;21176;-86
2022/03/14 01:21:33;;;;;;;0.40;0.30;;;8.10;99.90;;;;;;1872278;75;21452;-85
2022/03/14 01:24:25;;;;;;;0.60;0.47;;;8.00;99.90;;;;;;1832719;78;21163;-85
2022/03/14 01:27:18;;;;;;;0.75;0.50;;;8.00;99.90;;;;;;1885616;75;21107;-85
2022/03/14 01:32:48;;;;;;;1.42;0.72;;;8.00;99.90;;;;;;1964521;72;22099;-84
2022/03/14 01:35:58;;;;;;;1.60;0.47;;;8.00;99.90;;;;;;1905112;74;21090;-85
2022/03/14 01:38:51;;;;;;;0.82;0.45;;;8.00;99.90;;;;;;1904839;75;21150;-86
2022/03/14 01:41:43;;;;;;;0.75;0.40;;;8.00;99.90;;;;;;1915047;73;21334;-84
2022/03/14 01:44:34;;;;;;;0.88;0.40;;;8.00;99.90;;;;;;1905256;74;21083;-87
2022/03/14 01:47:27;;;;;;;0.40;0.30;;;7.90;99.90;;;;;;1930591;74;21171;-87
2022/03/14 01:50:20;;;;;;;1.00;0.50;;;7.80;99.90;;;;;;1909650;74;21106;-86
2022/03/14 01:53:14;;;;;;;0.80;0.65;;;7.70;99.90;;;;;;1905330;74;21111;-85
2022/03/14 01:56:06;;;;;;;1.20;0.70;;;7.80;99.90;;;;;;1925247;74;21220;-85
2022/03/14 02:01:36;;;;;;;1.12;0.78;;;7.80;99.90;;;;;;1918769;72;22255;-85
2022/03/14 02:04:47;;;;;;;0.78;0.45;;;7.80;99.90;;;;;;1877897;75;21091;-85
2022/03/14 02:07:40;;;;;;;0.80;0.55;;;7.90;99.90;;;;;;1888009;75;21062;-85
2022/03/14 02:13:13;;;;;;;1.12;0.72;;;7.90;99.90;;;;;;1944838;72;22161;-86
2022/03/14 02:16:23;;;;;;;1.07;0.93;;;7.80;99.90;;;;;;1917106;73;21098;-86
2022/03/14 02:19:15;;;;;;;1.32;0.95;;;7.80;99.90;;;;;;1938652;73;21098;-86
2022/03/14 02:22:09;;;;;;;1.82;1.30;;;7.80;99.90;;;;;;1930556;73;21658;-86
2022/03/14 02:25:01;;;;;;;2.95;1.50;;;7.80;99.90;;;;;;1917416;73;21197;-85
2022/03/14 02:30:32;;;;;;;4.95;4.05;;;7.90;99.90;;;;;;1942114;72;22151;-87
2022/03/14 02:33:42;;;;;;;5.17;4.40;;;7.80;99.90;;;;;;1935097;73;21074;-87
2022/03/14 02:36:38;;;;;;;5.17;4.75;;;7.80;99.90;;;;;;1916758;73;21192;-86
2022/03/14 02:39:27;;;;;;;5.40;4.70;;;7.80;99.90;;;;;;1930754;73;21124;-85
2022/03/14 02:45:04;;;;;;;6.70;5.50;;;7.80;99.90;;;;;;1950431;72;22688;-84
2022/03/14 02:48:14;;;;;;;8.70;6.00;;;7.90;99.90;;;;;;1943722;73;21159;-86
2022/03/14 02:51:06;;;;;;;6.78;5.78;;;7.90;99.90;;;;;;1916832;75;21123;-85
2022/03/14 02:54:08;;;;;;;6.67;5.62;;;7.90;99.90;;;;;;1917291;73;21152;-85
2022/03/14 02:59:52;;;;;;;3.67;3.30;;;7.90;99.90;;;;;;1939450;72;22169;-86
2022/03/14 03:03:01;;;;;;;2.15;1.95;;;8.00;99.90;;;;;;1896535;75;21106;-86
2022/03/14 03:08:36;;;;;;;1.22;1.07;;;8.10;99.90;;;;;;1953549;72;22253;-86
2022/03/14 03:14:30;;;;;;;1.50;1.05;;;8.00;99.90;;;;;;1935995;72;22244;-84
2022/03/14 03:17:40;;;;;;;2.25;0.93;;;7.90;99.90;;;;;;1913642;74;21063;-86
2022/03/14 03:23:15;;;;;;;1.17;0.82;;;8.00;99.90;;;;;;1929137;72;22169;-87
2022/03/14 03:26:25;;;;;;;1.05;0.80;;;8.10;99.90;;;;;;1890024;75;21161;-87
2022/03/14 03:29:18;;;;;;;1.37;0.78;;;8.10;99.90;;;;;;1891346;75;21114;-87
2022/03/14 03:32:10;;;;;;;1.20;0.88;;;8.00;99.90;;;;;;1897586;75;21099;-85
2022/03/14 03:35:02;;;;;;;0.90;0.75;;;8.10;99.90;;;;;;1900156;75;21582;-85
2022/03/14 03:37:54;;;;;;;1.02;0.80;;;8.10;99.90;;;;;;1886332;75;21176;-85
2022/03/14 03:43:38;;;;;;;0.78;0.70;;;8.10;99.90;;;;;;1947152;72;22687;-86
2022/03/14 03:46:48;;;;;;;1.00;0.90;;;8.10;99.90;;;;;;1904080;74;21094;-86
2022/03/14 03:49:39;;;;;;;1.80;1.12;;;8.10;99.90;;;;;;1925195;73;21195;-86
2022/03/14 03:52:31;;;;;;;1.37;1.10;;;8.10;99.90;;;;;;1921234;74;21059;-86
2022/03/14 03:55:22;;;;;;;1.42;1.32;;;8.10;99.90;;;;;;1878671;75;21098;-86
2022/03/14 03:58:14;;;;;;;1.52;1.35;;;8.10;99.90;;;;;;1915502;74;21091;-86
2022/03/14 04:01:07;;;;;;;1.65;1.32;;;8.10;99.90;;;;;;1930417;74;21205;-87
2022/03/14 04:04:01;;;;;;;2.15;1.70;;;8.10;99.90;;;;;;1904543;74;21088;-85
2022/03/14 04:09:31;;;;;;;2.67;1.95;;;8.20;99.90;;;;;;1957204;72;22249;-84
2022/03/14 04:12:43;;;;;;;3.33;2.72;;;8.20;99.90;;;;;;1890802;75;21402;-85
2022/03/14 04:18:18;;;;;;;4.83;3.67;;;8.10;99.90;;;;;;1945399;72;22244;-84
2022/03/14 04:24:07;;;;;;;3.47;3.17;;;8.10;99.90;;;;;;1950316;72;22170;-85
2022/03/14 04:27:17;;;;;;;5.30;4.30;;;8.10;99.90;;;;;;1911339;75;21147;-87
2022/03/14 04:32:52;;;;;;;5.25;4.40;;;8.00;99.90;;;;;;1962973;72;22167;-86
2022/03/14 04:38:45;;;;;;;5.03;4.42;;;7.90;99.90;;;;;;1940135;72;22307;-86
2022/03/14 04:41:55;;;;;;;4.67;4.20;;;8.00;99.90;;;;;;1895393;75;21099;-86
2022/03/14 04:44:49;;;;;;;5.22;4.22;;;7.90;99.90;;;;;;1889491;75;21145;-86
2022/03/14 04:47:40;;;;;;;8.43;4.03;;;7.90;99.90;;;;;;1904236;75;21091;-84
2022/03/14 04:50:31;;;;;;;5.62;4.47;;;7.80;99.90;;;;;;1888500;75;21063;-85
2022/03/14 04:53:22;;;;;;;5.10;4.45;;;7.90;99.90;;;;;;1887484;75;21080;-85
2022/03/14 04:58:57;;;;;;;6.30;4.60;;;7.80;99.90;;;;;;1948746;72;22190;-84
2022/03/14 05:02:07;;;;;;;7.22;4.92;;;7.80;99.90;;;;;;1898395;74;21137;-85
2022/03/14 05:04:59;;;;;;;5.20;4.70;;;7.80;99.90;;;;;;1894772;75;21170;-85
2022/03/14 05:07:50;;;;;;;4.75;4.12;;;7.80;99.90;;;;;;1881364;75;21102;-85
2022/03/14 05:13:20;;;;;;;5.97;4.53;;;7.70;99.90;;;;;;1941195;72;22217;-85
2022/03/14 05:19:09;;;;;;;4.33;3.60;;;7.60;99.90;;;;;;1944929;72;22271;-84
2022/03/14 05:22:20;;;;;;;2.98;2.60;;;7.60;99.90;;;;;;1908280;74;21128;-86
2022/03/14 05:27:54;;;;;;;3.00;2.70;;;7.60;99.90;;;;;;1957497;72;22197;-87
2022/03/14 05:31:04;;;;;;;3.10;2.77;;;7.60;99.90;;;;;;1897486;75;21043;-86
2022/03/14 05:33:56;;;;;;;2.92;2.60;;;7.60;99.90;;;;;;1872208;75;21173;-86
2022/03/14 05:36:47;;;;;;;3.08;2.77;;;7.50;99.90;;;;;;1842087;77;21102;-85
2022/03/14 05:39:39;;;;;;;3.85;3.00;;;7.50;99.90;;;;;;1888083;75;21080;-86
2022/03/14 05:42:31;;;;;;;3.92;2.92;;;7.50;99.90;;;;;;1890061;75;21565;-86
2022/03/14 05:48:03;;;;;;;4.33;3.92;;;7.50;99.90;;;;;;1946882;72;22539;-84
2022/03/14 05:53:55;;;;;;;4.90;4.00;;;7.40;99.90;;;;;;1963416;72;22261;-84
2022/03/14 05:57:05;;;;;;;3.75;3.30;;;7.40;99.90;;;;;;1918979;73;21067;-87
2022/03/14 05:59:57;;;;;;;5.17;3.75;;;7.40;99.90;;;;;;1944082;73;21194;-85
2022/03/14 06:05:28;;;;;;;5.40;4.28;;;7.40;99.90;;;;;;1959421;72;22752;-87
2022/03/14 06:08:38;;;;;;;4.17;3.77;;;7.40;99.90;;;;;;1927468;73;21123;-86
2022/03/14 06:14:09;;;;;;;4.92;3.98;;;7.40;99.90;;;;;;1953008;72;22165;-86
2022/03/14 06:17:19;;;;;;;4.47;4.03;;;7.50;99.90;;;;;;1913168;75;21109;-87
2022/03/14 06:22:50;;;;;;;5.37;4.47;;;7.50;99.90;;;;;;1931960;72;22177;-86
2022/03/14 06:28:44;;;;;;;6.08;4.05;;;7.60;99.90;;;;;;1945192;72;22147;-91
2022/03/14 06:31:54;;;;;;;3.80;3.30;;;7.60;99.90;;;;;;1893440;75;21126;-90
2022/03/14 06:37:39;;;;;;;4.62;3.87;;;7.60;99.90;;;;;;1976154;72;22198;-92
2022/03/14 06:40:49;;;;;;;4.15;3.75;;;7.70;99.90;;;;;;1948766;73;21098;-89
2022/03/14 06:43:40;;;;;;;5.35;3.72;;;7.70;99.90;;;;;;1923030;73;21098;-90
2022/03/14 06:46:31;;;;;;;4.58;3.55;;;7.80;99.90;;;;;;1918706;73;21465;-91
2022/03/14 06:49:24;;;;;;;3.60;3.30;;;7.80;99.90;;;;;;1917107;75;21135;-90
2022/03/14 06:52:17;;;;;;;3.50;3.20;;;7.80;99.90;;;;;;1926072;73;21332;-91
2022/03/14 06:57:50;;;;;;;4.85;4.30;;;7.80;99.90;;;;;;1937728;72;22278;-88
2022/03/14 07:01:03;;;;;;;4.47;3.85;;;7.90;99.90;;;;;;1890976;75;21091;-88
2022/03/14 07:03:56;;;;;;;5.42;4.40;;;8.00;99.90;;;;;;1874579;75;21066;-87
2022/03/14 07:06:47;;;;;;;4.87;3.90;;;8.00;99.90;;;;;;1902236;75;21162;-86
2022/03/14 07:12:20;;;;;;;5.30;3.98;;;8.10;99.90;;;;;;1936688;72;22182;-88
2022/03/14 07:15:30;;;;;;;5.30;3.92;;;8.20;99.90;;;;;;1886567;75;21098;-87
2022/03/14 07:18:21;;;;;;;5.60;4.12;;;8.20;99.90;;;;;;1896264;75;21047;-87
2022/03/14 07:23:54;;;;;;;5.20;4.60;;;8.20;99.90;;;;;;1951423;72;22598;-88
2022/03/14 07:27:04;;;;;;;4.80;4.25;;;8.20;99.90;;;;;;1943058;73;21226;-88
2022/03/14 07:29:55;;;;;;;7.08;4.10;;;8.40;99.90;;;;;;1920496;73;21164;-88
2022/03/14 07:32:47;;;;;;;4.92;4.22;;;8.50;99.90;;;;;;1936993;73;21120;-87
2022/03/14 07:38:18;;;;;;;5.80;4.05;;;8.60;99.90;;;;;;1952645;72;22133;-88
2022/03/14 07:44:14;;;;;;;6.83;4.25;;;8.80;99.90;;;;;;1949020;72;22120;-87
2022/03/14 07:47:24;;;;;;;4.87;4.20;;;8.70;99.90;;;;;;1900728;75;21129;-87
2022/03/14 07:50:18;;;;;;;5.12;4.30;;;8.80;99.90;;;;;;1881556;75;21052;-88
2022/03/14 07:53:09;;;;;;;4.60;3.92;;;8.90;99.90;;;;;;1887038;75;21499;-87
2022/03/14 07:58:40;;;;;;;4.10;3.70;;;9.00;99.90;;;;;;1951270;72;22237;-88
2022/03/14 08:01:50;;;;;;;4.97;4.47;;;9.10;99.90;;;;;;1884564;75;21133;-88
2022/03/14 08:07:27;;;;;;;4.75;4.12;;;9.20;99.90;;;;;;1944527;72;20129;-87
2022/03/14 08:10:41;;;;;;;4.65;4.10;;;9.10;99.90;;;;;;1914747;73;21142;-88
2022/03/14 08:13:31;;;;;;;5.85;4.22;;;9.20;99.90;;;;;;1937626;74;21056;-88
2022/03/14 08:19:03;;;;;;;4.55;3.85;;;9.30;99.90;;;;;;1932777;72;22225;-88
2022/03/14 08:22:13;;;;;;;5.05;4.12;;;9.30;99.90;;;;;;1897345;75;21103;-89
2022/03/14 08:25:05;;;;;;;5.78;3.27;;;9.40;99.90;;;;;;1891665;75;21099;-88
2022/03/14 08:27:57;;;;;;;4.33;3.47;;;9.50;99.90;;;;;;1872984;75;21124;-87
2022/03/14 08:33:28;;;;;;;8.28;3.80;;;9.60;99.90;;;;;;1957446;72;22582;-88
2022/03/14 08:39:17;;;;;;;3.52;3.05;;;9.80;99.90;;;;;;1932333;72;22235;-89
2022/03/14 08:45:07;;;;;;;5.10;3.77;;;10.00;99.90;;;;;;1944352;72;22209;-89
2022/03/14 08:48:16;;;;;;;5.08;4.20;;;10.00;99.90;;;;;;1895678;75;21585;-88
2022/03/14 08:53:51;;;;;;;4.30;3.55;;;10.20;99.90;;;;;;1944508;72;22214;-88
2022/03/14 08:57:04;;;;;;;5.55;4.12;;;10.20;99.90;;;;;;1900812;74;21059;-89
2022/03/14 08:59:56;;;;;;;4.20;3.17;;;10.40;99.90;;;;;;1895842;75;21046;-88
2022/03/14 09:05:28;;;;;;;3.72;3.12;;;10.50;99.90;;;;;;1972480;72;22249;-88
2022/03/14 09:08:39;;;;;;;4.20;3.33;;;10.40;99.90;;;;;;1919296;74;21012;-88
2022/03/14 09:11:31;;;;;;;3.45;3.12;;;10.50;99.90;;;;;;1908881;74;21124;-88
2022/03/14 09:14:23;;;;;;;5.12;3.30;;;10.70;99.90;;;;;;1905209;74;21060;-88
2022/03/14 09:17:14;;;;;;;5.05;3.37;;;10.70;99.90;;;;;;1924988;74;21125;-88
2022/03/14 09:20:08;;;;;;;6.12;3.30;;;10.80;99.90;;;;;;1917764;72;21240;-88
2022/03/14 09:22:59;;;;;;;4.65;3.17;;;10.80;99.90;;;;;;1905054;75;21098;-88
2022/03/14 09:25:51;;;;;;;4.35;2.95;;;10.90;99.90;;;;;;1905240;75;21489;-88
2022/03/14 09:28:44;;;;;;;3.72;2.90;;;10.90;99.90;;;;;;1904863;75;21106;-88
2022/03/14 09:34:14;;;;;;;6.15;3.12;;;11.10;99.90;;;;;;1948340;72;22127;-89
2022/03/14 09:37:24;;;;;;;3.65;2.90;;;11.20;99.90;;;;;;1890899;73;21059;-88
2022/03/14 09:42:59;;;;;;;3.17;2.67;;;11.50;99.90;;;;;;1958160;72;22519;-87
2022/03/14 09:48:56;;;;;;;4.08;2.65;;;11.70;99.90;;;;;;1952621;72;22143;-89
2022/03/14 09:52:08;;;;;;;4.67;2.40;;;11.70;99.90;;;;;;1941483;73;21059;-89
2022/03/14 09:55:00;;;;;;;3.55;3.12;;;11.70;99.90;;;;;;1921937;73;21116;-88
2022/03/14 09:57:52;;;;;;;4.25;3.08;;;11.80;99.90;;;;;;1917547;75;21080;-88
2022/03/14 10:03:25;;;;;;;4.65;2.90;;;11.80;99.90;;;;;;1954767;72;23157;-89
2022/03/14 10:09:16;;;;;;;3.30;2.50;;;12.10;99.90;;;;;;1953826;72;22704;-89
2022/03/14 10:12:26;;;;;;;3.20;2.62;;;12.00;99.90;;;;;;1895749;74;21105;-89
2022/03/14 10:15:18;;;;;;;5.08;3.72;;;12.00;99.90;;;;;;1884895;76;21559;-88
2022/03/14 10:18:14;;;;;;;3.15;2.60;;;11.90;99.90;;;;;;1913234;73;21059;-90
2022/03/14 10:21:08;;;;;;;3.80;3.33;;;12.00;99.90;;;;;;1891579;73;21133;-90
2022/03/14 10:24:04;;;;;;;4.35;2.60;;;12.00;99.90;;;;;;1896083;75;21115;-90
2022/03/14 10:26:57;;;;;;;3.52;2.90;;;12.00;99.90;;;;;;1902792;75;21272;-88
2022/03/14 10:29:50;;;;;;;5.72;2.30;;;12.20;99.90;;;;;;1898414;75;21146;-88
2022/03/14 10:32:42;;;;;;;7.95;2.95;;;12.30;99.90;;;;;;1917470;75;21076;-88
2022/03/14 10:35:39;;;;;;;3.10;2.80;;;12.40;99.90;;;;;;1891586;75;21059;-89
2022/03/14 10:38:32;;;;;;;4.85;2.90;;;12.60;99.90;;;;;;1906885;75;21090;-88
2022/03/14 10:41:24;;;;;;;4.20;2.33;;;12.70;99.90;;;;;;1902087;75;21605;-90
2022/03/14 10:44:27;;;;;;;4.50;2.58;;;12.80;99.90;;;;;;1890153;75;21126;-89
2022/03/14 10:47:21;;;;;;;2.20;1.95;;;12.90;99.90;;;;;;1884644;75;21802;-89
2022/03/14 10:50:29;;;;;;;2.30;2.08;;;13.00;99.90;;;;;;1898726;75;21280;-90
2022/03/14 10:53:22;;;;;;;4.12;2.30;;;13.10;99.90;;;;;;1888078;75;21174;-88
2022/03/14 10:56:14;;;;;;;4.95;2.72;;;13.10;99.90;;;;;;1896940;75;21072;-88
2022/03/14 10:59:10;;;;;;;3.15;2.35;;;13.30;99.90;;;;;;1900559;75;21079;-88
2022/03/14 11:02:03;;;;;;;3.30;1.98;;;13.30;99.90;;;;;;1896126;75;21094;-88
2022/03/14 11:04:57;;;;;;;2.10;1.80;;;13.40;99.90;;;;;;1889129;75;21054;-88
2022/03/14 11:07:48;;;;;;;2.08;1.87;;;13.40;99.90;;;;;;1906563;74;21467;-88
2022/03/14 11:10:40;;;;;;;3.05;1.90;;;13.60;99.90;;;;;;1891204;75;21139;-88
2022/03/14 11:13:32;;;;;;;5.45;2.33;;;13.60;99.90;;;;;;1891548;75;21099;-87
2022/03/14 11:16:28;;;;;;;2.85;2.35;;;13.60;99.90;;;;;;1881147;75;21107;-87
2022/03/14 11:19:20;;;;;;;2.25;1.70;;;13.60;99.90;;;;;;1913552;75;21113;-90
2022/03/14 11:22:13;;;;;;;2.10;1.60;;;13.70;99.90;;;;;;1873448;77;21103;-90
2022/03/14 11:25:06;;;;;;;2.02;1.60;;;13.70;99.90;;;;;;1888356;75;21178;-89
2022/03/14 11:28:02;;;;;;;1.37;0.98;;;13.80;99.90;;;;;;1872273;75;21194;-88
2022/03/14 11:30:59;;;;;;;3.50;1.67;;;13.70;99.90;;;;;;1893603;75;21144;-90
2022/03/14 11:33:52;;;;;;;2.77;1.45;;;13.70;99.90;;;;;;1905788;75;21507;-88
2022/03/14 11:36:47;;;;;;;1.87;1.70;;;13.90;99.90;;;;;;1884537;75;21117;-89
2022/03/14 11:39:39;;;;;;;5.05;2.25;;;14.10;99.90;;;;;;1887632;75;21114;-87
2022/03/14 11:42:31;;;;;;;4.53;1.98;;;14.10;99.90;;;;;;1883013;75;21524;-88
2022/03/14 11:45:25;;;;;;;2.10;1.30;;;14.20;99.90;;;;;;1888873;75;21092;-87
2022/03/14 11:48:17;;;;;;;2.33;1.52;;;14.10;99.90;;;;;;1871819;75;21251;-87
2022/03/14 11:51:11;;;;;;;1.50;1.25;;;14.20;99.90;;;;;;1881546;75;21554;-90
2022/03/14 11:54:05;;;;;;;1.22;1.10;;;14.20;99.90;;;;;;1883862;75;21064;-88
2022/03/14 11:56:58;;;;;;;2.15;1.60;;;14.30;99.90;;;;;;1891342;75;21044;-87
2022/03/14 12:31:16;;;;;;;1.60;1.05;;;15.70;99.90;;;;;;1932848;72;22113;-83
2022/03/14 12:34:30;;;;;;;1.72;1.10;;;15.50;99.90;;;;;;1895441;73;21116;-88
2022/03/14 12:37:35;;;;;;;1.60;0.82;;;15.60;99.90;;;;;;1892488;74;21112;-88
2022/03/14 12:40:48;;;;;;;1.35;0.93;;;15.50;99.90;;;;;;1880836;75;21192;-88
2022/03/14 12:46:25;;;;;;;2.22;1.70;;;15.60;99.90;;;;;;1937987;72;27940;-89
2022/03/14 12:49:51;;;;;;;2.02;1.30;;;15.60;99.90;;;;;;1884242;75;21092;-88
2022/03/14 12:53:02;;;;;;;1.80;1.20;;;15.80;99.90;;;;;;1894214;75;21040;-88
2022/03/14 12:55:58;;;;;;;3.75;1.00;;;15.90;99.90;;;;;;1904257;75;21157;-88
2022/03/14 12:59:02;;;;;;;2.45;1.20;;;15.90;99.90;;;;;;1897982;75;21200;-88
2022/03/14 13:01:53;;;;;;;5.12;3.00;;;16.00;99.90;;;;;;1904104;75;21514;-88
2022/03/14 13:04:47;;;;;;;3.45;1.22;;;16.10;99.90;;;;;;1907338;73;21050;-88
2022/03/14 13:07:38;;;;;;;1.42;1.20;;;16.20;99.90;;;;;;1915543;73;21233;-87
2022/03/14 13:10:40;;;;;;;1.62;1.27;;;16.30;99.90;;;;;;1899502;75;21092;-87
2022/03/14 13:13:34;;;;;;;5.58;2.08;;;16.50;99.90;;;;;;1881567;75;21099;-88
2022/03/14 13:21:44;;;;;;;3.08;1.82;;;16.70;99.90;;;;;;1964504;72;22153;-88
2022/03/14 13:24:55;;;;;;;3.80;1.20;;;16.70;99.90;;;;;;1951338;73;21118;-86
2022/03/14 13:27:53;;;;;;;1.80;1.20;;;16.80;99.90;;;;;;1950872;73;21218;-88
2022/03/14 13:30:46;;;;;;;1.55;1.12;;;16.80;99.90;;;;;;1929996;73;21561;-87
2022/03/14 13:33:40;;;;;;;1.95;1.47;;;16.70;99.90;;;;;;1917180;75;21114;-87
2022/03/14 13:39:30;;;;;;;2.20;1.20;;;16.60;99.90;;;;;;1964151;72;22203;-87
2022/03/14 13:42:40;;;;;;;1.70;1.40;;;16.50;99.90;;;;;;1919538;74;21080;-88
2022/03/14 13:45:32;;;;;;;1.62;1.40;;;16.40;99.90;;;;;;1923130;73;21140;-88
2022/03/14 13:48:24;;;;;;;1.50;1.32;;;16.40;99.90;;;;;;1947305;73;21126;-88
2022/03/14 13:53:55;;;;;;;1.87;1.60;;;16.30;99.90;;;;;;1934533;72;22157;-89
2022/03/14 13:57:07;;;;;;;2.27;1.62;;;16.40;99.90;;;;;;1907511;74;21197;-88
2022/03/14 13:59:59;;;;;;;1.55;1.45;;;16.60;99.90;;;;;;1915266;74;21209;-89
2022/03/14 14:05:38;;;;;;;3.20;1.30;;;16.90;99.90;;;;;;1950850;72;22772;-87
2022/03/14 14:11:28;;;;;;;1.62;1.20;;;16.90;99.90;;;;;;1944598;72;22557;-89
2022/03/14 14:14:39;;;;;;;2.05;1.35;;;16.90;99.90;;;;;;1910947;73;21512;-88
2022/03/14 14:20:18;;;;;;;1.25;1.15;;;16.90;99.90;;;;;;1935064;72;22195;-87
2022/03/14 14:26:07;;;;;;;1.95;1.37;;;16.60;99.90;;;;;;1957920;72;22092;-89
2022/03/14 14:32:26;;;;;;;2.35;1.70;;;17.30;99.90;;;;;;1970352;72;22679;-87
2022/03/14 14:35:38;;;;;;;2.87;1.62;;;17.60;99.90;;;;;;1938573;73;21051;-87
2022/03/14 14:38:32;;;;;;;2.80;1.98;;;17.90;99.90;;;;;;1926994;73;21110;-88
2022/03/14 14:41:24;;;;;;;2.27;1.60;;;18.50;99.90;;;;;;1929659;73;21156;-88
2022/03/14 14:49:34;;;;;;;4.28;1.60;;;18.60;99.90;;;;;;1941859;72;22683;-88
2022/03/14 14:55:29;;;;;;;2.42;1.70;;;18.10;99.90;;;;;;1952924;73;22710;-87
2022/03/14 14:58:40;;;;;;;1.90;1.60;;;18.20;99.90;;;;;;1917444;75;21092;-87
2022/03/14 15:04:12;;;;;;;3.33;1.40;;;17.70;99.90;;;;;;1945761;72;22137;-87
2022/03/14 15:07:21;;;;;;;1.67;1.40;;;17.50;99.90;;;;;;1911223;73;21180;-90
2022/03/14 15:10:15;;;;;;;2.17;1.47;;;17.20;99.90;;;;;;1906264;75;21052;-88
2022/03/14 15:15:52;;;;;;;2.55;1.55;;;17.10;99.90;;;;;;1937875;72;22285;-88
2022/03/14 15:19:05;;;;;;;5.05;1.50;;;17.00;99.90;;;;;;1895692;75;21097;-88
2022/03/14 15:21:58;;;;;;;1.87;1.65;;;16.80;99.90;;;;;;1870745;75;21091;-88
2022/03/14 15:24:51;;;;;;;2.35;1.45;;;16.60;99.90;;;;;;1884880;75;21064;-87
2022/03/14 15:27:44;;;;;;;2.45;1.67;;;16.40;99.90;;;;;;1879708;75;21055;-88
2022/03/14 15:30:40;;;;;;;1.95;1.32;;;16.30;99.90;;;;;;1881085;75;21146;-88
2022/03/14 15:36:11;;;;;;;2.30;1.67;;;16.40;99.90;;;;;;1943582;72;22271;-89
2022/03/14 15:39:21;;;;;;;1.98;1.67;;;16.30;99.90;;;;;;1886017;75;21067;-88
2022/03/14 15:42:13;;;;;;;2.10;1.40;;;16.30;99.90;;;;;;1885024;74;21225;-88
2022/03/14 15:45:06;;;;;;;2.65;1.87;;;16.20;99.90;;;;;;1888456;75;21534;-88
2022/03/14 15:47:57;;;;;;;3.80;1.60;;;16.10;99.90;;;;;;1888660;75;21581;-89
2022/03/14 15:50:49;;;;;;;4.75;1.42;;;16.00;99.90;;;;;;1889008;75;21079;-88
2022/03/14 15:53:41;;;;;;;3.05;1.45;;;15.90;99.90;;;;;;1900036;75;21102;-87
2022/03/14 15:59:16;;;;;;;1.92;1.25;;;15.80;99.90;;;;;;1933148;72;22134;-87
2022/03/14 16:02:26;;;;;;;2.85;1.42;;;15.80;99.90;;;;;;1882111;75;21129;-89
2022/03/14 16:05:18;;;;;;;1.52;1.30;;;15.80;99.90;;;;;;1879830;75;21099;-89
2022/03/14 16:08:10;;;;;;;2.47;1.27;;;15.70;99.90;;;;;;1875981;75;21048;-88
2022/03/14 16:11:01;;;;;;;2.98;1.30;;;15.70;99.90;;;;;;1894628;75;21098;-87
2022/03/14 16:13:53;;;;;;;1.20;1.05;;;15.60;99.90;;;;;;1873016;75;21135;-88
2022/03/14 16:19:25;;;;;;;1.80;0.90;;;15.60;99.90;;;;;;1949370;72;22119;-90
2022/03/14 16:25:24;;;;;;;2.15;0.95;;;15.60;99.90;;;;;;1932028;72;22680;-89
2022/03/14 16:28:30;;;;;;;4.40;1.02;;;15.50;99.90;;;;;;1841128;77;21110;-87
2022/03/14 16:31:25;;;;;;;3.55;1.30;;;15.40;99.90;;;;;;1905183;75;21055;-89
2022/03/14 16:34:16;;;;;;;1.30;1.00;;;15.40;99.90;;;;;;1874385;75;21056;-89
2022/03/14 16:37:10;;;;;;;1.40;1.00;;;15.40;99.90;;;;;;1884450;75;21047;-88
2022/03/14 16:40:12;;;;;;;1.50;1.22;;;15.40;99.90;;;;;;1880794;75;21055;-88
2022/03/14 16:43:04;;;;;;;1.98;1.22;;;15.40;99.90;;;;;;1888695;75;21121;-88
2022/03/14 16:45:56;;;;;;;2.45;1.20;;;15.30;99.90;;;;;;1890597;75;21060;-88
2022/03/14 16:51:28;;;;;;;2.12;1.22;;;15.10;99.90;;;;;;1936005;72;22772;-89
2022/03/14 16:54:38;;;;;;;2.25;1.05;;;15.10;99.90;;;;;;1895099;75;21105;-89
2022/03/14 17:00:14;;;;;;;2.40;1.47;;;15.00;99.90;;;;;;1957227;72;22189;-87
2022/03/14 17:06:02;;;;;;;1.80;1.60;;;14.90;99.90;;;;;;1949072;72;22282;-82
2022/03/14 17:09:13;;;;;;;2.77;1.62;;;14.90;99.90;;;;;;1906263;75;21172;-86
2022/03/14 17:12:05;;;;;;;3.37;1.72;;;14.80;99.90;;;;;;1884481;75;21562;-86
2022/03/14 17:14:57;;;;;;;3.70;1.75;;;14.80;99.90;;;;;;1906221;75;21080;-85
2022/03/14 17:17:48;;;;;;;1.98;1.62;;;14.70;99.90;;;;;;1915760;75;21584;-85
2022/03/14 17:20:41;;;;;;;3.33;1.67;;;14.70;99.90;;;;;;1917261;75;21034;-85
2022/03/14 17:23:32;;;;;;;3.25;2.02;;;14.70;99.90;;;;;;1915718;75;21232;-85
2022/03/14 17:29:05;;;;;;;2.95;1.70;;;14.70;99.90;;;;;;1931803;72;22158;-87
2022/03/14 17:32:18;;;;;;;2.22;1.57;;;14.60;99.90;;;;;;1894642;75;21510;-86
2022/03/14 17:35:10;;;;;;;3.90;1.60;;;14.60;99.90;;;;;;1878257;75;21100;-85
2022/03/14 17:40:42;;;;;;;5.30;2.12;;;14.60;99.90;;;;;;1955792;72;22232;-85
2022/03/14 17:43:52;;;;;;;4.55;1.80;;;14.50;99.90;;;;;;1897243;75;21188;-86
2022/03/14 17:46:44;;;;;;;2.83;1.75;;;14.50;99.90;;;;;;1895174;75;21094;-86
2022/03/14 17:49:35;;;;;;;3.40;1.90;;;14.40;99.90;;;;;;1916006;75;21795;-86
2022/03/14 17:52:28;;;;;;;2.30;2.00;;;14.40;99.90;;;;;;1903187;75;21179;-86
2022/03/14 17:55:22;;;;;;;5.15;2.40;;;14.30;99.90;;;;;;1908088;74;21373;-86
2022/03/14 17:58:13;;;;;;;3.02;2.52;;;14.30;99.90;;;;;;1893105;75;21058;-86
2022/03/14 18:01:05;;;;;;;3.22;2.45;;;14.20;99.90;;;;;;1892270;75;21108;-86
2022/03/14 18:03:57;;;;;;;4.67;2.42;;;14.10;99.90;;;;;;1914541;75;21136;-86
2022/03/14 18:09:31;;;;;;;2.85;1.98;;;14.00;99.90;;;;;;1933413;72;22149;-85
2022/03/14 18:15:20;;;;;;;5.95;3.22;;;13.90;99.90;;;;;;1937072;72;22370;-87
2022/03/14 18:21:10;;;;;;;5.22;3.58;;;13.80;99.90;;;;;;1955560;72;22157;-84
2022/03/14 18:24:20;;;;;;;5.70;3.12;;;13.70;99.90;;;;;;1905622;75;21053;-86
2022/03/14 18:27:11;;;;;;;5.17;3.30;;;13.60;99.90;;;;;;1890944;75;21161;-86
2022/03/14 18:30:02;;;;;;;4.60;3.40;;;13.50;99.90;;;;;;1906782;75;21047;-85
2022/03/14 18:32:54;;;;;;;5.83;3.58;;;13.50;99.90;;;;;;1903021;75;21093;-86
2022/03/14 18:35:45;;;;;;;5.58;3.15;;;13.50;99.90;;;;;;1898018;75;21090;-85
2022/03/14 18:38:39;;;;;;;6.87;3.30;;;13.40;99.90;;;;;;1908516;75;21211;-85
2022/03/14 18:41:30;;;;;;;5.10;3.22;;;13.40;99.90;;;;;;1906963;75;21162;-78
2022/03/14 18:44:24;;;;;;;5.62;3.12;;;13.40;99.90;;;;;;1904278;75;21086;-77
2022/03/14 18:47:15;;;;;;;6.95;4.03;;;13.40;99.90;;;;;;1902705;75;21165;-80
2022/03/14 18:50:10;;;;;;;5.42;4.08;;;13.30;99.90;;;;;;1906777;75;21154;-78
2022/03/14 18:53:03;;;;;;;4.47;3.65;;;13.30;99.90;;;;;;1893830;75;21139;-79
2022/03/14 18:55:54;;;;;;;7.62;4.05;;;13.20;99.90;;;;;;1895642;75;21063;-78
2022/03/14 18:58:46;;;;;;;6.75;3.25;;;13.20;99.90;;;;;;1901054;75;21043;-78
2022/03/14 19:04:19;;;;;;;5.55;3.70;;;13.00;99.90;;;;;;1954684;72;22147;-78
2022/03/14 19:10:15;;;;;;;6.50;4.17;;;13.00;99.90;;;;;;1956528;72;22563;-77
2022/03/14 19:16:04;;;;;;;7.00;5.12;;;13.00;99.90;;;;;;1956072;72;22134;-80
2022/03/14 19:19:16;;;;;;;8.53;5.20;;;13.10;99.90;;;;;;1937356;73;21074;-79
2022/03/14 19:22:07;;;;;;;4.95;4.42;;;12.90;99.90;;;;;;1902532;74;21071;-78
2022/03/14 19:25:00;;;;;;;6.05;4.30;;;12.80;99.90;;;;;;1897095;75;21097;-78
2022/03/14 19:30:40;;;;;;;5.53;4.28;;;12.70;99.90;;;;;;1945791;72;22087;-79
2022/03/14 19:36:33;;;;;;;6.97;4.58;;;12.60;99.90;;;;;;1944328;72;22203;-77